sensor_id;sensor_type;location;lat;lon;timestamp;P1;durP1;ratioP1;P2;durP2;ratioP2
10005;SDS011;5042;42.626;23.382;2023-04-24T00:01:23;6.17;;;4.57;;
10005;SDS011;5042;42.626;23.382;2023-04-24T00:03:50;6.30;;;5.00;;
10005;SDS011;5042;42.626;23.382;2023-04-24T00:06:17;6.33;;;4.93;;
10005;SDS011;5042;42.626;23.382;2023-04-24T00:08:45;6.60;;;4.60;;
10005;SDS011;5042;42.626;23.382;2023-04-24T00:11:12;5.83;;;4.77;;
10005;SDS011;5042;42.626;23.382;2023-04-24T00:13:39;6.37;;;4.87;;
10005;SDS011;5042;42.626;23.382;2023-04-24T00:16:05;6.17;;;4.60;;
10005;SDS011;5042;42.626;23.382;2023-04-24T00:18:32;7.40;;;4.47;;
10005;SDS011;5042;42.626;23.382;2023-04-24T00:20:59;6.13;;;5.17;;
10005;SDS011;5042;42.626;23.382;2023-04-24T00:23:26;5.07;;;4.53;;
10005;SDS011;5042;42.626;23.382;2023-04-24T00:25:54;6.23;;;4.30;;
10005;SDS011;5042;42.626;23.382;2023-04-24T00:28:20;5.87;;;4.33;;
10005;SDS011;5042;42.626;23.382;2023-04-24T00:30:47;6.87;;;4.67;;
10005;SDS011;5042;42.626;23.382;2023-04-24T00:33:14;5.60;;;4.77;;
10005;SDS011;5042;42.626;23.382;2023-04-24T00:35:41;5.67;;;4.63;;
10005;SDS011;5042;42.626;23.382;2023-04-24T00:38:07;4.73;;;4.33;;
10005;SDS011;5042;42.626;23.382;2023-04-24T00:40:34;5.33;;;4.63;;
10005;SDS011;5042;42.626;23.382;2023-04-24T00:43:02;7.07;;;4.43;;
10005;SDS011;5042;42.626;23.382;2023-04-24T00:45:29;4.77;;;4.20;;
10005;SDS011;5042;42.626;23.382;2023-04-24T00:47:57;5.13;;;4.63;;
10005;SDS011;5042;42.626;23.382;2023-04-24T00:50:24;5.53;;;4.37;;
10005;SDS011;5042;42.626;23.382;2023-04-24T00:52:51;6.37;;;4.60;;
10005;SDS011;5042;42.626;23.382;2023-04-24T00:55:19;6.93;;;4.67;;
10005;SDS011;5042;42.626;23.382;2023-04-24T00:57:46;6.47;;;5.03;;
10005;SDS011;5042;42.626;23.382;2023-04-24T01:00:16;6.77;;;5.07;;
10005;SDS011;5042;42.626;23.382;2023-04-24T01:02:44;5.53;;;4.77;;
10005;SDS011;5042;42.626;23.382;2023-04-24T01:05:11;6.10;;;5.50;;
10005;SDS011;5042;42.626;23.382;2023-04-24T01:07:38;7.63;;;5.70;;
10005;SDS011;5042;42.626;23.382;2023-04-24T01:10:09;8.00;;;6.20;;
10005;SDS011;5042;42.626;23.382;2023-04-24T01:12:36;8.37;;;6.60;;
10005;SDS011;5042;42.626;23.382;2023-04-24T01:15:03;8.03;;;6.87;;
10005;SDS011;5042;42.626;23.382;2023-04-24T01:17:32;7.40;;;6.40;;
10005;SDS011;5042;42.626;23.382;2023-04-24T01:19:59;9.73;;;6.83;;
10005;SDS011;5042;42.626;23.382;2023-04-24T01:22:32;8.60;;;7.33;;
10005;SDS011;5042;42.626;23.382;2023-04-24T01:24:59;8.70;;;6.97;;
10005;SDS011;5042;42.626;23.382;2023-04-24T01:27:27;9.87;;;7.23;;
10005;SDS011;5042;42.626;23.382;2023-04-24T01:29:53;8.93;;;6.97;;
10005;SDS011;5042;42.626;23.382;2023-04-24T01:32:20;9.50;;;7.57;;
10005;SDS011;5042;42.626;23.382;2023-04-24T01:34:47;9.00;;;7.07;;
10005;SDS011;5042;42.626;23.382;2023-04-24T01:37:15;10.10;;;7.47;;
10005;SDS011;5042;42.626;23.382;2023-04-24T01:39:43;11.20;;;7.90;;
10005;SDS011;5042;42.626;23.382;2023-04-24T01:42:10;10.53;;;8.03;;
10005;SDS011;5042;42.626;23.382;2023-04-24T01:44:38;9.33;;;6.93;;
10005;SDS011;5042;42.626;23.382;2023-04-24T01:47:05;10.77;;;7.40;;
10005;SDS011;5042;42.626;23.382;2023-04-24T01:49:32;8.93;;;7.10;;
10005;SDS011;5042;42.626;23.382;2023-04-24T01:51:59;7.80;;;6.20;;
10005;SDS011;5042;42.626;23.382;2023-04-24T01:54:26;8.47;;;6.43;;
10005;SDS011;5042;42.626;23.382;2023-04-24T01:56:54;7.23;;;6.53;;
10005;SDS011;5042;42.626;23.382;2023-04-24T01:59:21;9.03;;;6.47;;
10005;SDS011;5042;42.626;23.382;2023-04-24T02:01:49;7.90;;;6.30;;
10005;SDS011;5042;42.626;23.382;2023-04-24T02:04:16;6.27;;;5.67;;
10005;SDS011;5042;42.626;23.382;2023-04-24T02:06:43;9.03;;;6.63;;
10005;SDS011;5042;42.626;23.382;2023-04-24T02:09:09;7.83;;;6.97;;
10005;SDS011;5042;42.626;23.382;2023-04-24T02:11:36;9.17;;;6.53;;
10005;SDS011;5042;42.626;23.382;2023-04-24T02:14:04;9.13;;;7.00;;
10005;SDS011;5042;42.626;23.382;2023-04-24T02:16:31;7.70;;;6.73;;
10005;SDS011;5042;42.626;23.382;2023-04-24T02:18:58;9.03;;;7.53;;
10005;SDS011;5042;42.626;23.382;2023-04-24T02:21:25;9.50;;;6.97;;
10005;SDS011;5042;42.626;23.382;2023-04-24T02:23:53;9.60;;;7.00;;
10005;SDS011;5042;42.626;23.382;2023-04-24T02:26:20;10.17;;;7.83;;
10005;SDS011;5042;42.626;23.382;2023-04-24T02:28:46;10.50;;;7.27;;
10005;SDS011;5042;42.626;23.382;2023-04-24T02:31:15;11.00;;;7.80;;
10005;SDS011;5042;42.626;23.382;2023-04-24T02:33:41;10.50;;;7.67;;
10005;SDS011;5042;42.626;23.382;2023-04-24T02:36:08;10.40;;;8.57;;
10005;SDS011;5042;42.626;23.382;2023-04-24T02:38:35;12.07;;;8.60;;
10005;SDS011;5042;42.626;23.382;2023-04-24T02:41:01;13.67;;;7.93;;
10005;SDS011;5042;42.626;23.382;2023-04-24T02:43:31;10.47;;;8.37;;
10005;SDS011;5042;42.626;23.382;2023-04-24T02:45:57;10.50;;;7.77;;
10005;SDS011;5042;42.626;23.382;2023-04-24T02:48:26;9.03;;;7.10;;
10005;SDS011;5042;42.626;23.382;2023-04-24T02:50:52;8.33;;;7.27;;
10005;SDS011;5042;42.626;23.382;2023-04-24T02:53:19;10.63;;;8.10;;
10005;SDS011;5042;42.626;23.382;2023-04-24T02:55:46;10.40;;;7.83;;
10005;SDS011;5042;42.626;23.382;2023-04-24T02:58:13;12.30;;;8.47;;
10005;SDS011;5042;42.626;23.382;2023-04-24T03:00:40;9.77;;;7.97;;
10005;SDS011;5042;42.626;23.382;2023-04-24T03:03:06;9.70;;;7.63;;
10005;SDS011;5042;42.626;23.382;2023-04-24T03:05:35;10.00;;;7.77;;
10005;SDS011;5042;42.626;23.382;2023-04-24T03:08:01;12.23;;;7.90;;
10005;SDS011;5042;42.626;23.382;2023-04-24T03:10:28;10.33;;;7.60;;
10005;SDS011;5042;42.626;23.382;2023-04-24T03:12:55;9.03;;;7.70;;
10005;SDS011;5042;42.626;23.382;2023-04-24T03:15:22;12.00;;;8.43;;
10005;SDS011;5042;42.626;23.382;2023-04-24T03:17:48;9.70;;;8.20;;
10005;SDS011;5042;42.626;23.382;2023-04-24T03:20:15;12.20;;;8.10;;
10005;SDS011;5042;42.626;23.382;2023-04-24T03:22:43;10.40;;;7.87;;
10005;SDS011;5042;42.626;23.382;2023-04-24T03:25:10;9.30;;;8.20;;
10005;SDS011;5042;42.626;23.382;2023-04-24T03:27:36;12.03;;;8.43;;
10005;SDS011;5042;42.626;23.382;2023-04-24T03:30:04;12.97;;;8.27;;
10005;SDS011;5042;42.626;23.382;2023-04-24T03:32:32;13.07;;;8.43;;
10005;SDS011;5042;42.626;23.382;2023-04-24T03:34:59;12.13;;;8.57;;
10005;SDS011;5042;42.626;23.382;2023-04-24T03:37:26;11.63;;;7.83;;
10005;SDS011;5042;42.626;23.382;2023-04-24T03:39:55;16.23;;;8.50;;
10005;SDS011;5042;42.626;23.382;2023-04-24T03:42:22;11.47;;;8.40;;
10005;SDS011;5042;42.626;23.382;2023-04-24T03:44:48;10.43;;;7.93;;
10005;SDS011;5042;42.626;23.382;2023-04-24T03:47:15;11.80;;;8.13;;
10005;SDS011;5042;42.626;23.382;2023-04-24T03:49:42;9.50;;;7.73;;
10005;SDS011;5042;42.626;23.382;2023-04-24T03:52:08;10.83;;;7.93;;
10005;SDS011;5042;42.626;23.382;2023-04-24T03:54:35;11.73;;;7.70;;
10005;SDS011;5042;42.626;23.382;2023-04-24T03:57:03;8.80;;;7.60;;
10005;SDS011;5042;42.626;23.382;2023-04-24T03:59:30;8.17;;;7.07;;
10005;SDS011;5042;42.626;23.382;2023-04-24T04:01:57;8.83;;;7.57;;
10005;SDS011;5042;42.626;23.382;2023-04-24T04:04:24;9.30;;;7.73;;
10005;SDS011;5042;42.626;23.382;2023-04-24T04:06:51;10.03;;;7.47;;
10005;SDS011;5042;42.626;23.382;2023-04-24T04:09:18;12.17;;;7.40;;
10005;SDS011;5042;42.626;23.382;2023-04-24T04:11:45;8.57;;;7.60;;
10005;SDS011;5042;42.626;23.382;2023-04-24T04:14:13;9.03;;;7.43;;
10005;SDS011;5042;42.626;23.382;2023-04-24T04:16:40;13.77;;;7.07;;
10005;SDS011;5042;42.626;23.382;2023-04-24T04:19:07;9.27;;;7.20;;
10005;SDS011;5042;42.626;23.382;2023-04-24T04:21:33;7.83;;;7.00;;
10005;SDS011;5042;42.626;23.382;2023-04-24T04:24:00;8.20;;;7.10;;
10005;SDS011;5042;42.626;23.382;2023-04-24T04:26:27;9.07;;;6.93;;
10005;SDS011;5042;42.626;23.382;2023-04-24T04:28:57;7.83;;;7.03;;
10005;SDS011;5042;42.626;23.382;2023-04-24T04:31:27;11.63;;;7.47;;
10005;SDS011;5042;42.626;23.382;2023-04-24T04:33:53;8.67;;;6.70;;
10005;SDS011;5042;42.626;23.382;2023-04-24T04:36:20;7.93;;;6.87;;
10005;SDS011;5042;42.626;23.382;2023-04-24T04:38:47;8.57;;;6.80;;
10005;SDS011;5042;42.626;23.382;2023-04-24T04:41:13;9.07;;;6.83;;
10005;SDS011;5042;42.626;23.382;2023-04-24T04:43:41;8.67;;;6.63;;
10005;SDS011;5042;42.626;23.382;2023-04-24T04:46:08;7.67;;;6.87;;
10005;SDS011;5042;42.626;23.382;2023-04-24T04:48:37;8.23;;;6.60;;
10005;SDS011;5042;42.626;23.382;2023-04-24T04:51:04;9.03;;;6.30;;
10005;SDS011;5042;42.626;23.382;2023-04-24T04:53:31;7.80;;;6.53;;
10005;SDS011;5042;42.626;23.382;2023-04-24T04:55:58;8.50;;;6.67;;
10005;SDS011;5042;42.626;23.382;2023-04-24T04:58:25;10.70;;;7.17;;
10005;SDS011;5042;42.626;23.382;2023-04-24T05:00:52;9.20;;;7.10;;
10005;SDS011;5042;42.626;23.382;2023-04-24T05:03:19;9.93;;;7.13;;
10005;SDS011;5042;42.626;23.382;2023-04-24T05:05:47;9.83;;;6.83;;
10005;SDS011;5042;42.626;23.382;2023-04-24T05:08:14;8.77;;;7.67;;
10005;SDS011;5042;42.626;23.382;2023-04-24T05:10:41;11.53;;;7.77;;
10005;SDS011;5042;42.626;23.382;2023-04-24T05:13:08;10.27;;;7.00;;
10005;SDS011;5042;42.626;23.382;2023-04-24T05:15:35;11.97;;;7.90;;
10005;SDS011;5042;42.626;23.382;2023-04-24T05:18:01;8.77;;;7.43;;
10005;SDS011;5042;42.626;23.382;2023-04-24T05:20:29;9.37;;;7.37;;
10005;SDS011;5042;42.626;23.382;2023-04-24T05:22:57;10.73;;;7.70;;
10005;SDS011;5042;42.626;23.382;2023-04-24T05:25:24;10.47;;;7.03;;
10005;SDS011;5042;42.626;23.382;2023-04-24T05:27:51;10.57;;;7.83;;
10005;SDS011;5042;42.626;23.382;2023-04-24T05:30:19;9.40;;;7.57;;
10005;SDS011;5042;42.626;23.382;2023-04-24T05:32:45;12.30;;;7.70;;
10005;SDS011;5042;42.626;23.382;2023-04-24T05:35:12;9.53;;;7.70;;
10005;SDS011;5042;42.626;23.382;2023-04-24T05:37:39;10.30;;;7.57;;
10005;SDS011;5042;42.626;23.382;2023-04-24T05:40:08;12.83;;;7.20;;
10005;SDS011;5042;42.626;23.382;2023-04-24T05:42:36;9.90;;;7.43;;
10005;SDS011;5042;42.626;23.382;2023-04-24T05:45:03;10.67;;;8.03;;
10005;SDS011;5042;42.626;23.382;2023-04-24T05:47:30;9.63;;;7.63;;
10005;SDS011;5042;42.626;23.382;2023-04-24T05:49:57;8.90;;;7.27;;
10005;SDS011;5042;42.626;23.382;2023-04-24T05:52:24;9.93;;;7.57;;
10005;SDS011;5042;42.626;23.382;2023-04-24T05:54:50;8.30;;;7.23;;
10005;SDS011;5042;42.626;23.382;2023-04-24T05:57:19;8.70;;;7.40;;
10005;SDS011;5042;42.626;23.382;2023-04-24T05:59:46;11.27;;;7.93;;
10005;SDS011;5042;42.626;23.382;2023-04-24T06:02:12;11.20;;;7.37;;
10005;SDS011;5042;42.626;23.382;2023-04-24T06:04:39;10.80;;;7.50;;
10005;SDS011;5042;42.626;23.382;2023-04-24T06:07:06;10.48;;;6.82;;
10005;SDS011;5042;42.626;23.382;2023-04-24T06:09:33;9.57;;;6.93;;
10005;SDS011;5042;42.626;23.382;2023-04-24T06:12:00;10.20;;;7.60;;
10005;SDS011;5042;42.626;23.382;2023-04-24T06:14:33;8.23;;;7.32;;
10005;SDS011;5042;42.626;23.382;2023-04-24T06:17:00;9.57;;;7.30;;
10005;SDS011;5042;42.626;23.382;2023-04-24T06:19:27;9.70;;;6.88;;
10005;SDS011;5042;42.626;23.382;2023-04-24T06:21:54;8.90;;;6.93;;
10005;SDS011;5042;42.626;23.382;2023-04-24T06:24:20;8.55;;;6.57;;
10005;SDS011;5042;42.626;23.382;2023-04-24T06:26:47;8.60;;;7.05;;
10005;SDS011;5042;42.626;23.382;2023-04-24T06:29:14;10.50;;;7.53;;
10005;SDS011;5042;42.626;23.382;2023-04-24T06:31:42;9.68;;;7.28;;
10005;SDS011;5042;42.626;23.382;2023-04-24T06:34:09;12.27;;;7.22;;
10005;SDS011;5042;42.626;23.382;2023-04-24T06:36:35;8.15;;;6.97;;
10005;SDS011;5042;42.626;23.382;2023-04-24T06:39:02;9.32;;;7.35;;
10005;SDS011;5042;42.626;23.382;2023-04-24T06:41:30;11.65;;;6.95;;
10005;SDS011;5042;42.626;23.382;2023-04-24T06:43:56;12.57;;;8.00;;
10005;SDS011;5042;42.626;23.382;2023-04-24T06:46:23;10.10;;;7.13;;
10005;SDS011;5042;42.626;23.382;2023-04-24T06:48:52;8.73;;;6.93;;
10005;SDS011;5042;42.626;23.382;2023-04-24T06:51:21;12.98;;;7.30;;
10005;SDS011;5042;42.626;23.382;2023-04-24T06:53:48;9.30;;;6.97;;
10005;SDS011;5042;42.626;23.382;2023-04-24T06:56:15;8.63;;;7.05;;
10005;SDS011;5042;42.626;23.382;2023-04-24T06:58:42;15.90;;;7.35;;
10005;SDS011;5042;42.626;23.382;2023-04-24T07:01:10;9.45;;;6.95;;
10005;SDS011;5042;42.626;23.382;2023-04-24T07:03:37;7.00;;;6.07;;
10005;SDS011;5042;42.626;23.382;2023-04-24T07:06:05;7.30;;;6.00;;
10005;SDS011;5042;42.626;23.382;2023-04-24T07:08:32;8.85;;;6.00;;
10005;SDS011;5042;42.626;23.382;2023-04-24T07:10:59;7.75;;;5.80;;
10005;SDS011;5042;42.626;23.382;2023-04-24T07:13:26;6.40;;;5.68;;
10005;SDS011;5042;42.626;23.382;2023-04-24T07:15:53;8.10;;;6.25;;
10005;SDS011;5042;42.626;23.382;2023-04-24T07:18:21;9.25;;;5.63;;
10005;SDS011;5042;42.626;23.382;2023-04-24T07:20:49;12.35;;;6.97;;
10005;SDS011;5042;42.626;23.382;2023-04-24T07:23:17;8.02;;;6.15;;
10005;SDS011;5042;42.626;23.382;2023-04-24T07:25:44;8.98;;;6.13;;
10005;SDS011;5042;42.626;23.382;2023-04-24T07:28:12;8.52;;;6.18;;
10005;SDS011;5042;42.626;23.382;2023-04-24T07:30:38;9.48;;;6.13;;
10005;SDS011;5042;42.626;23.382;2023-04-24T07:33:05;7.03;;;6.05;;
10005;SDS011;5042;42.626;23.382;2023-04-24T07:35:32;10.70;;;6.50;;
10005;SDS011;5042;42.626;23.382;2023-04-24T07:37:59;10.38;;;6.50;;
10005;SDS011;5042;42.626;23.382;2023-04-24T07:40:27;12.73;;;6.90;;
10005;SDS011;5042;42.626;23.382;2023-04-24T07:42:54;5.65;;;5.15;;
10005;SDS011;5042;42.626;23.382;2023-04-24T07:45:21;6.28;;;5.38;;
10005;SDS011;5042;42.626;23.382;2023-04-24T07:47:51;5.93;;;5.00;;
10005;SDS011;5042;42.626;23.382;2023-04-24T07:50:18;6.15;;;5.32;;
10005;SDS011;5042;42.626;23.382;2023-04-24T07:52:45;5.50;;;5.00;;
10005;SDS011;5042;42.626;23.382;2023-04-24T07:55:12;8.52;;;5.30;;
10005;SDS011;5042;42.626;23.382;2023-04-24T07:57:40;11.63;;;5.50;;
10005;SDS011;5042;42.626;23.382;2023-04-24T08:00:07;6.78;;;5.55;;
10005;SDS011;5042;42.626;23.382;2023-04-24T08:02:35;6.25;;;5.15;;
10005;SDS011;5042;42.626;23.382;2023-04-24T08:05:02;5.97;;;5.38;;
10005;SDS011;5042;42.626;23.382;2023-04-24T08:07:29;7.00;;;5.78;;
10005;SDS011;5042;42.626;23.382;2023-04-24T08:09:57;7.50;;;5.13;;
10005;SDS011;5042;42.626;23.382;2023-04-24T08:12:24;6.88;;;4.97;;
10005;SDS011;5042;42.626;23.382;2023-04-24T08:14:52;6.43;;;5.00;;
10005;SDS011;5042;42.626;23.382;2023-04-24T08:17:19;5.93;;;5.18;;
10005;SDS011;5042;42.626;23.382;2023-04-24T08:19:46;6.88;;;5.00;;
10005;SDS011;5042;42.626;23.382;2023-04-24T08:22:14;5.95;;;4.82;;
10005;SDS011;5042;42.626;23.382;2023-04-24T08:24:40;6.40;;;4.78;;
10005;SDS011;5042;42.626;23.382;2023-04-24T08:27:07;6.97;;;5.88;;
10005;SDS011;5042;42.626;23.382;2023-04-24T08:29:35;9.80;;;7.63;;
10005;SDS011;5042;42.626;23.382;2023-04-24T08:32:03;8.57;;;5.60;;
10005;SDS011;5042;42.626;23.382;2023-04-24T08:34:31;6.15;;;4.72;;
10005;SDS011;5042;42.626;23.382;2023-04-24T08:36:58;5.18;;;4.65;;
10005;SDS011;5042;42.626;23.382;2023-04-24T08:39:25;6.53;;;4.60;;
10005;SDS011;5042;42.626;23.382;2023-04-24T08:41:52;5.50;;;4.78;;
10005;SDS011;5042;42.626;23.382;2023-04-24T08:44:19;7.85;;;5.05;;
10005;SDS011;5042;42.626;23.382;2023-04-24T08:46:47;6.30;;;4.95;;
10005;SDS011;5042;42.626;23.382;2023-04-24T08:49:16;5.32;;;4.63;;
10005;SDS011;5042;42.626;23.382;2023-04-24T08:51:44;7.90;;;5.57;;
10005;SDS011;5042;42.626;23.382;2023-04-24T08:54:12;7.20;;;5.55;;
10005;SDS011;5042;42.626;23.382;2023-04-24T08:56:39;6.25;;;4.70;;
10005;SDS011;5042;42.626;23.382;2023-04-24T08:59:09;7.45;;;5.18;;
10005;SDS011;5042;42.626;23.382;2023-04-24T09:01:36;7.07;;;4.80;;
10005;SDS011;5042;42.626;23.382;2023-04-24T09:04:04;5.53;;;4.43;;
10005;SDS011;5042;42.626;23.382;2023-04-24T09:06:36;4.60;;;4.20;;
10005;SDS011;5042;42.626;23.382;2023-04-24T09:09:03;4.90;;;4.50;;
10005;SDS011;5042;42.626;23.382;2023-04-24T09:11:30;13.43;;;4.57;;
10005;SDS011;5042;42.626;23.382;2023-04-24T09:13:58;6.35;;;4.40;;
10005;SDS011;5042;42.626;23.382;2023-04-24T09:16:25;5.93;;;4.50;;
10005;SDS011;5042;42.626;23.382;2023-04-24T09:18:52;5.88;;;5.28;;
10005;SDS011;5042;42.626;23.382;2023-04-24T09:21:20;5.15;;;4.65;;
10005;SDS011;5042;42.626;23.382;2023-04-24T09:23:58;4.60;;;4.20;;
10005;SDS011;5042;42.626;23.382;2023-04-24T09:26:28;4.82;;;4.20;;
10005;SDS011;5042;42.626;23.382;2023-04-24T09:28:56;4.95;;;4.50;;
10005;SDS011;5042;42.626;23.382;2023-04-24T09:31:24;4.72;;;4.32;;
10005;SDS011;5042;42.626;23.382;2023-04-24T09:33:54;4.80;;;4.40;;
10005;SDS011;5042;42.626;23.382;2023-04-24T09:36:26;4.60;;;4.30;;
10005;SDS011;5042;42.626;23.382;2023-04-24T09:38:55;5.07;;;4.57;;
10005;SDS011;5042;42.626;23.382;2023-04-24T09:41:26;4.82;;;4.03;;
10005;SDS011;5042;42.626;23.382;2023-04-24T09:43:54;4.15;;;3.85;;
10005;SDS011;5042;42.626;23.382;2023-04-24T09:46:28;6.57;;;4.43;;
10005;SDS011;5042;42.626;23.382;2023-04-24T09:48:56;4.25;;;3.85;;
10005;SDS011;5042;42.626;23.382;2023-04-24T09:51:33;4.82;;;4.35;;
10005;SDS011;5042;42.626;23.382;2023-04-24T09:54:02;4.13;;;3.83;;
10005;SDS011;5042;42.626;23.382;2023-04-24T09:56:32;5.43;;;4.10;;
10005;SDS011;5042;42.626;23.382;2023-04-24T09:59:05;4.93;;;4.47;;
10005;SDS011;5042;42.626;23.382;2023-04-24T10:01:32;4.22;;;3.75;;
10005;SDS011;5042;42.626;23.382;2023-04-24T10:03:59;4.97;;;4.22;;
10005;SDS011;5042;42.626;23.382;2023-04-24T10:06:31;5.03;;;3.78;;
10005;SDS011;5042;42.626;23.382;2023-04-24T10:08:59;4.45;;;3.95;;
10005;SDS011;5042;42.626;23.382;2023-04-24T10:11:28;5.32;;;4.07;;
10005;SDS011;5042;42.626;23.382;2023-04-24T10:13:55;4.00;;;3.40;;
10005;SDS011;5042;42.626;23.382;2023-04-24T10:16:23;4.32;;;3.88;;
10005;SDS011;5042;42.626;23.382;2023-04-24T10:18:52;3.80;;;3.50;;
10005;SDS011;5042;42.626;23.382;2023-04-24T10:21:19;5.03;;;4.07;;
10005;SDS011;5042;42.626;23.382;2023-04-24T10:23:46;4.40;;;4.00;;
10005;SDS011;5042;42.626;23.382;2023-04-24T10:26:16;4.55;;;4.10;;
10005;SDS011;5042;42.626;23.382;2023-04-24T10:28:46;4.47;;;3.90;;
10005;SDS011;5042;42.626;23.382;2023-04-24T10:31:14;4.60;;;4.20;;
10005;SDS011;5042;42.626;23.382;2023-04-24T10:33:41;4.60;;;4.20;;
10005;SDS011;5042;42.626;23.382;2023-04-24T10:36:09;4.07;;;3.78;;
10005;SDS011;5042;42.626;23.382;2023-04-24T10:38:38;4.32;;;3.97;;
10005;SDS011;5042;42.626;23.382;2023-04-24T10:41:07;4.93;;;3.80;;
10005;SDS011;5042;42.626;23.382;2023-04-24T10:43:34;5.07;;;4.18;;
10005;SDS011;5042;42.626;23.382;2023-04-24T10:46:03;4.95;;;3.75;;
10005;SDS011;5042;42.626;23.382;2023-04-24T10:48:31;5.47;;;3.90;;
10005;SDS011;5042;42.626;23.382;2023-04-24T10:50:58;4.28;;;3.33;;
10005;SDS011;5042;42.626;23.382;2023-04-24T10:53:27;4.35;;;3.95;;
10005;SDS011;5042;42.626;23.382;2023-04-24T10:55:57;7.00;;;3.47;;
10005;SDS011;5042;42.626;23.382;2023-04-24T10:58:36;5.25;;;3.72;;
10005;SDS011;5042;42.626;23.382;2023-04-24T11:01:06;3.78;;;3.47;;
10005;SDS011;5042;42.626;23.382;2023-04-24T11:03:34;4.00;;;3.60;;
10005;SDS011;5042;42.626;23.382;2023-04-24T11:06:02;3.63;;;3.33;;
10005;SDS011;5042;42.626;23.382;2023-04-24T11:08:30;4.18;;;3.85;;
10005;SDS011;5042;42.626;23.382;2023-04-24T11:11:02;4.15;;;3.85;;
10005;SDS011;5042;42.626;23.382;2023-04-24T11:16:34;4.20;;;3.67;;
10005;SDS011;5042;42.626;23.382;2023-04-24T11:19:04;4.32;;;3.80;;
10005;SDS011;5042;42.626;23.382;2023-04-24T11:21:43;4.07;;;3.60;;
10005;SDS011;5042;42.626;23.382;2023-04-24T11:24:27;4.57;;;4.15;;
10005;SDS011;5042;42.626;23.382;2023-04-24T11:26:56;5.43;;;4.28;;
10005;SDS011;5042;42.626;23.382;2023-04-24T11:29:37;4.10;;;3.80;;
10005;SDS011;5042;42.626;23.382;2023-04-24T11:32:22;3.78;;;3.53;;
10005;SDS011;5042;42.626;23.382;2023-04-24T11:34:52;5.47;;;4.55;;
10005;SDS011;5042;42.626;23.382;2023-04-24T11:37:20;8.73;;;3.85;;
10005;SDS011;5042;42.626;23.382;2023-04-24T11:39:49;4.07;;;2.85;;
10005;SDS011;5042;42.626;23.382;2023-04-24T11:42:17;2.78;;;2.58;;
10005;SDS011;5042;42.626;23.382;2023-04-24T11:44:44;3.15;;;2.85;;
10005;SDS011;5042;42.626;23.382;2023-04-24T11:47:12;3.55;;;3.17;;
10005;SDS011;5042;42.626;23.382;2023-04-24T11:49:41;3.63;;;3.22;;
10005;SDS011;5042;42.626;23.382;2023-04-24T11:52:07;3.45;;;3.00;;
10005;SDS011;5042;42.626;23.382;2023-04-24T11:54:35;4.97;;;3.40;;
10005;SDS011;5042;42.626;23.382;2023-04-24T11:57:03;3.15;;;2.95;;
10005;SDS011;5042;42.626;23.382;2023-04-24T11:59:35;3.28;;;3.08;;
10005;SDS011;5042;42.626;23.382;2023-04-24T12:02:02;3.80;;;3.50;;
10005;SDS011;5042;42.626;23.382;2023-04-24T12:04:37;5.03;;;3.72;;
10005;SDS011;5042;42.626;23.382;2023-04-24T12:07:06;3.72;;;3.42;;
10005;SDS011;5042;42.626;23.382;2023-04-24T12:09:40;4.68;;;3.92;;
10005;SDS011;5042;42.626;23.382;2023-04-24T12:12:08;5.65;;;3.80;;
10005;SDS011;5042;42.626;23.382;2023-04-24T12:14:41;4.10;;;3.53;;
10005;SDS011;5042;42.626;23.382;2023-04-24T12:17:09;6.18;;;3.80;;
10005;SDS011;5042;42.626;23.382;2023-04-24T12:19:36;3.55;;;3.25;;
10005;SDS011;5042;42.626;23.382;2023-04-24T12:22:03;3.92;;;3.53;;
10005;SDS011;5042;42.626;23.382;2023-04-24T12:24:32;4.63;;;3.50;;
10005;SDS011;5042;42.626;23.382;2023-04-24T12:26:59;3.75;;;3.45;;
10005;SDS011;5042;42.626;23.382;2023-04-24T12:29:27;3.90;;;3.50;;
10005;SDS011;5042;42.626;23.382;2023-04-24T12:31:54;3.95;;;3.55;;
10005;SDS011;5042;42.626;23.382;2023-04-24T12:34:22;3.85;;;3.55;;
10005;SDS011;5042;42.626;23.382;2023-04-24T12:36:50;4.55;;;3.58;;
10005;SDS011;5042;42.626;23.382;2023-04-24T12:39:17;4.45;;;3.28;;
10005;SDS011;5042;42.626;23.382;2023-04-24T12:41:55;3.22;;;2.88;;
10005;SDS011;5042;42.626;23.382;2023-04-24T12:44:29;3.13;;;2.92;;
10005;SDS011;5042;42.626;23.382;2023-04-24T12:46:57;3.33;;;3.13;;
10005;SDS011;5042;42.626;23.382;2023-04-24T12:49:24;4.10;;;3.75;;
10005;SDS011;5042;42.626;23.382;2023-04-24T12:51:51;6.20;;;4.85;;
10005;SDS011;5042;42.626;23.382;2023-04-24T12:54:18;3.95;;;3.60;;
10005;SDS011;5042;42.626;23.382;2023-04-24T12:56:44;5.30;;;3.97;;
10005;SDS011;5042;42.626;23.382;2023-04-24T12:59:13;3.92;;;3.53;;
10005;SDS011;5042;42.626;23.382;2023-04-24T13:04:07;4.40;;;3.78;;
10005;SDS011;5042;42.626;23.382;2023-04-24T13:06:34;3.58;;;3.28;;
10005;SDS011;5042;42.626;23.382;2023-04-24T13:09:00;7.03;;;4.50;;
10005;SDS011;5042;42.626;23.382;2023-04-24T13:11:28;4.43;;;3.65;;
10005;SDS011;5042;42.626;23.382;2023-04-24T13:13:55;5.95;;;3.97;;
10005;SDS011;5042;42.626;23.382;2023-04-24T13:16:23;4.53;;;4.07;;
10005;SDS011;5042;42.626;23.382;2023-04-24T13:18:50;4.15;;;3.78;;
10005;SDS011;5042;42.626;23.382;2023-04-24T13:21:17;4.45;;;4.00;;
10005;SDS011;5042;42.626;23.382;2023-04-24T13:23:44;3.90;;;3.60;;
10005;SDS011;5042;42.626;23.382;2023-04-24T13:26:11;4.47;;;4.07;;
10005;SDS011;5042;42.626;23.382;2023-04-24T13:28:38;5.63;;;3.80;;
10005;SDS011;5042;42.626;23.382;2023-04-24T13:31:05;4.63;;;4.22;;
10005;SDS011;5042;42.626;23.382;2023-04-24T13:33:33;5.03;;;4.53;;
10005;SDS011;5042;42.626;23.382;2023-04-24T13:36:00;4.28;;;3.95;;
10005;SDS011;5042;42.626;23.382;2023-04-24T13:38:27;5.00;;;3.67;;
10005;SDS011;5042;42.626;23.382;2023-04-24T13:40:54;4.18;;;3.78;;
10005;SDS011;5042;42.626;23.382;2023-04-24T13:43:21;7.10;;;4.20;;
10005;SDS011;5042;42.626;23.382;2023-04-24T13:45:47;5.22;;;4.63;;
10005;SDS011;5042;42.626;23.382;2023-04-24T13:48:14;5.35;;;4.25;;
10005;SDS011;5042;42.626;23.382;2023-04-24T13:50:43;5.43;;;4.30;;
10005;SDS011;5042;42.626;23.382;2023-04-24T13:53:10;6.30;;;4.50;;
10005;SDS011;5042;42.626;23.382;2023-04-24T13:55:36;7.75;;;5.70;;
10005;SDS011;5042;42.626;23.382;2023-04-24T13:58:04;8.20;;;7.20;;
10005;SDS011;5042;42.626;23.382;2023-04-24T14:00:31;5.10;;;4.60;;
10005;SDS011;5042;42.626;23.382;2023-04-24T14:02:58;7.57;;;5.35;;
10005;SDS011;5042;42.626;23.382;2023-04-24T14:05:25;6.85;;;5.40;;
10005;SDS011;5042;42.626;23.382;2023-04-24T14:07:53;9.23;;;4.60;;
10005;SDS011;5042;42.626;23.382;2023-04-24T14:10:20;4.22;;;3.75;;
10005;SDS011;5042;42.626;23.382;2023-04-24T14:12:47;4.75;;;4.10;;
10005;SDS011;5042;42.626;23.382;2023-04-24T14:15:14;5.35;;;4.35;;
10005;SDS011;5042;42.626;23.382;2023-04-24T14:17:41;5.10;;;4.03;;
10005;SDS011;5042;42.626;23.382;2023-04-24T14:20:08;5.28;;;4.40;;
10005;SDS011;5042;42.626;23.382;2023-04-24T14:22:35;7.00;;;5.75;;
10005;SDS011;5042;42.626;23.382;2023-04-24T14:25:04;5.00;;;4.20;;
10005;SDS011;5042;42.626;23.382;2023-04-24T14:27:31;3.63;;;3.00;;
10005;SDS011;5042;42.626;23.382;2023-04-24T14:29:59;4.72;;;3.83;;
10005;SDS011;5042;42.626;23.382;2023-04-24T14:32:26;4.28;;;3.90;;
10005;SDS011;5042;42.626;23.382;2023-04-24T14:34:53;4.07;;;3.67;;
10005;SDS011;5042;42.626;23.382;2023-04-24T14:37:20;3.45;;;3.20;;
10005;SDS011;5042;42.626;23.382;2023-04-24T14:39:47;2.78;;;2.58;;
10005;SDS011;5042;42.626;23.382;2023-04-24T14:42:15;2.97;;;2.72;;
10005;SDS011;5042;42.626;23.382;2023-04-24T14:44:42;3.65;;;3.00;;
10005;SDS011;5042;42.626;23.382;2023-04-24T14:47:09;3.40;;;3.10;;
10005;SDS011;5042;42.626;23.382;2023-04-24T14:49:36;3.92;;;3.55;;
10005;SDS011;5042;42.626;23.382;2023-04-24T14:52:03;4.35;;;3.40;;
10005;SDS011;5042;42.626;23.382;2023-04-24T14:54:29;4.47;;;3.78;;